sensor_id;sensor_type;location;lat;lon;timestamp;temperature;humidity
24522;DHT22;12680;57.804;12.190;2023-07-08T00:00:54;14.80;99.90
24522;DHT22;12680;57.804;12.190;2023-07-08T00:03:21;14.80;99.90
24522;DHT22;12680;57.804;12.190;2023-07-08T00:05:52;14.80;99.90
24522;DHT22;12680;57.804;12.190;2023-07-08T00:08:19;17.10;99.90
24522;DHT22;12680;57.804;12.190;2023-07-08T00:10:47;14.80;99.90
24522;DHT22;12680;57.804;12.190;2023-07-08T00:13:14;14.80;99.90
24522;DHT22;12680;57.804;12.190;2023-07-08T00:15:41;14.80;99.90
24522;DHT22;12680;57.804;12.190;2023-07-08T00:18:16;14.80;99.90
24522;DHT22;12680;57.804;12.190;2023-07-08T00:20:46;14.70;99.90
24522;DHT22;12680;57.804;12.190;2023-07-08T00:23:13;14.70;99.90
24522;DHT22;12680;57.804;12.190;2023-07-08T00:25:40;14.70;99.90
24522;DHT22;12680;57.804;12.190;2023-07-08T00:28:19;17.00;99.90
24522;DHT22;12680;57.804;12.190;2023-07-08T00:30:49;15.50;99.90
24522;DHT22;12680;57.804;12.190;2023-07-08T00:33:15;14.70;99.90
24522;DHT22;12680;57.804;12.190;2023-07-08T00:35:44;16.60;99.90
24522;DHT22;12680;57.804;12.190;2023-07-08T00:38:16;15.70;99.90
24522;DHT22;12680;57.804;12.190;2023-07-08T00:51:35;14.50;99.90
24522;DHT22;12680;57.804;12.190;2023-07-08T00:54:05;14.50;99.90
24522;DHT22;12680;57.804;12.190;2023-07-08T00:59:20;14.40;99.90
24522;DHT22;12680;57.804;12.190;2023-07-08T01:01:49;15.90;99.90
24522;DHT22;12680;57.804;12.190;2023-07-08T01:04:25;15.90;99.90
24522;DHT22;12680;57.804;12.190;2023-07-08T01:06:57;15.20;99.90
24522;DHT22;12680;57.804;12.190;2023-07-08T01:09:32;14.40;99.90
24522;DHT22;12680;57.804;12.190;2023-07-08T01:12:02;14.30;99.90
24522;DHT22;12680;57.804;12.190;2023-07-08T01:14:32;14.30;99.90
24522;DHT22;12680;57.804;12.190;2023-07-08T01:17:00;16.30;99.90
24522;DHT22;12680;57.804;12.190;2023-07-08T01:19:27;15.30;99.90
24522;DHT22;12680;57.804;12.190;2023-07-08T01:22:05;16.10;99.90
24522;DHT22;12680;57.804;12.190;2023-07-08T01:24:33;15.70;99.90
24522;DHT22;12680;57.804;12.190;2023-07-08T01:27:02;15.70;99.90
24522;DHT22;12680;57.804;12.190;2023-07-08T01:29:30;14.10;99.90
24522;DHT22;12680;57.804;12.190;2023-07-08T01:31:58;14.10;99.90
24522;DHT22;12680;57.804;12.190;2023-07-08T01:34:31;16.40;99.90
24522;DHT22;12680;57.804;12.190;2023-07-08T01:36:59;14.00;99.90
24522;DHT22;12680;57.804;12.190;2023-07-08T01:39:29;14.90;99.90
24522;DHT22;12680;57.804;12.190;2023-07-08T01:41:56;13.90;99.90
24522;DHT22;12680;57.804;12.190;2023-07-08T01:44:28;13.90;99.90
24522;DHT22;12680;57.804;12.190;2023-07-08T01:46:59;15.00;99.90
24522;DHT22;12680;57.804;12.190;2023-07-08T01:49:27;15.60;99.90
24522;DHT22;12680;57.804;12.190;2023-07-08T01:51:55;13.80;99.90
24522;DHT22;12680;57.804;12.190;2023-07-08T01:54:22;15.80;99.90
24522;DHT22;12680;57.804;12.190;2023-07-08T01:56:54;15.10;99.90
24522;DHT22;12680;57.804;12.190;2023-07-08T01:59:22;15.40;99.90
24522;DHT22;12680;57.804;12.190;2023-07-08T02:01:49;13.80;99.90
24522;DHT22;12680;57.804;12.190;2023-07-08T02:04:22;13.70;99.90
24522;DHT22;12680;57.804;12.190;2023-07-08T02:07:05;13.70;99.90
24522;DHT22;12680;57.804;12.190;2023-07-08T02:09:32;13.60;99.90
24522;DHT22;12680;57.804;12.190;2023-07-08T02:11:58;16.10;99.90
24522;DHT22;12680;57.804;12.190;2023-07-08T02:14:25;13.70;99.90
24522;DHT22;12680;57.804;12.190;2023-07-08T02:16:53;13.60;99.90
24522;DHT22;12680;57.804;12.190;2023-07-08T02:19:20;14.30;99.90
24522;DHT22;12680;57.804;12.190;2023-07-08T02:21:48;13.60;99.90
24522;DHT22;12680;57.804;12.190;2023-07-08T02:24:15;13.70;99.90
24522;DHT22;12680;57.804;12.190;2023-07-08T02:26:43;13.70;99.90
24522;DHT22;12680;57.804;12.190;2023-07-08T02:29:10;14.90;99.90
24522;DHT22;12680;57.804;12.190;2023-07-08T02:31:37;15.90;99.90
24522;DHT22;12680;57.804;12.190;2023-07-08T02:34:04;13.60;99.90
24522;DHT22;12680;57.804;12.190;2023-07-08T02:36:32;13.50;99.90
24522;DHT22;12680;57.804;12.190;2023-07-08T02:39:00;13.40;99.90
24522;DHT22;12680;57.804;12.190;2023-07-08T02:41:27;15.60;99.90
24522;DHT22;12680;57.804;12.190;2023-07-08T02:43:54;13.50;99.90
24522;DHT22;12680;57.804;12.190;2023-07-08T02:46:21;13.50;99.90
24522;DHT22;12680;57.804;12.190;2023-07-08T02:48:47;13.30;99.90
24522;DHT22;12680;57.804;12.190;2023-07-08T02:51:14;13.40;99.90
24522;DHT22;12680;57.804;12.190;2023-07-08T02:53:41;13.50;99.90
24522;DHT22;12680;57.804;12.190;2023-07-08T02:56:08;15.40;99.90
24522;DHT22;12680;57.804;12.190;2023-07-08T02:58:35;14.80;99.90
24522;DHT22;12680;57.804;12.190;2023-07-08T03:01:02;13.60;99.90
24522;DHT22;12680;57.804;12.190;2023-07-08T03:03:30;13.60;99.90
24522;DHT22;12680;57.804;12.190;2023-07-08T03:05:58;15.20;99.90
24522;DHT22;12680;57.804;12.190;2023-07-08T03:08:26;14.80;99.90
24522;DHT22;12680;57.804;12.190;2023-07-08T03:11:03;15.90;99.90
24522;DHT22;12680;57.804;12.190;2023-07-08T03:13:31;15.50;99.90
24522;DHT22;12680;57.804;12.190;2023-07-08T03:15:59;13.60;99.90
24522;DHT22;12680;57.804;12.190;2023-07-08T03:18:26;13.60;99.90
24522;DHT22;12680;57.804;12.190;2023-07-08T03:20:55;13.70;99.90
24522;DHT22;12680;57.804;12.190;2023-07-08T03:23:23;14.90;99.90
24522;DHT22;12680;57.804;12.190;2023-07-08T03:25:51;16.20;99.90
24522;DHT22;12680;57.804;12.190;2023-07-08T03:28:18;16.20;99.90
24522;DHT22;12680;57.804;12.190;2023-07-08T03:30:51;13.80;99.90
24522;DHT22;12680;57.804;12.190;2023-07-08T03:33:19;12.40;99.90
24522;DHT22;12680;57.804;12.190;2023-07-08T03:35:46;14.70;99.90
24522;DHT22;12680;57.804;12.190;2023-07-08T03:38:13;14.80;99.90
24522;DHT22;12680;57.804;12.190;2023-07-08T03:40:39;14.00;99.90
24522;DHT22;12680;57.804;12.190;2023-07-08T03:43:06;16.50;99.90
24522;DHT22;12680;57.804;12.190;2023-07-08T03:45:33;14.20;99.90
24522;DHT22;12680;57.804;12.190;2023-07-08T03:48:00;15.30;99.90
24522;DHT22;12680;57.804;12.190;2023-07-08T03:50:26;14.20;99.90
24522;DHT22;12680;57.804;12.190;2023-07-08T03:52:54;14.30;99.90
24522;DHT22;12680;57.804;12.190;2023-07-08T03:55:22;15.90;99.90
24522;DHT22;12680;57.804;12.190;2023-07-08T03:57:49;14.40;99.90
24522;DHT22;12680;57.804;12.190;2023-07-08T04:00:16;16.90;99.90
24522;DHT22;12680;57.804;12.190;2023-07-08T04:02:44;16.60;99.90
24522;DHT22;12680;57.804;12.190;2023-07-08T04:05:16;16.50;99.90
24522;DHT22;12680;57.804;12.190;2023-07-08T04:07:43;16.60;99.90
24522;DHT22;12680;57.804;12.190;2023-07-08T04:10:11;17.20;99.90
24522;DHT22;12680;57.804;12.190;2023-07-08T04:12:38;14.60;99.90
24522;DHT22;12680;57.804;12.190;2023-07-08T04:15:07;16.40;99.90
24522;DHT22;12680;57.804;12.190;2023-07-08T04:17:45;14.70;99.90
24522;DHT22;12680;57.804;12.190;2023-07-08T04:20:15;14.70;99.90
24522;DHT22;12680;57.804;12.190;2023-07-08T04:22:42;14.80;99.90
24522;DHT22;12680;57.804;12.190;2023-07-08T04:25:11;17.10;99.90
24522;DHT22;12680;57.804;12.190;2023-07-08T04:27:39;16.90;99.90
24522;DHT22;12680;57.804;12.190;2023-07-08T04:30:07;15.10;99.90
24522;DHT22;12680;57.804;12.190;2023-07-08T04:32:36;15.10;99.90
24522;DHT22;12680;57.804;12.190;2023-07-08T04:35:04;16.70;99.90
24522;DHT22;12680;57.804;12.190;2023-07-08T04:37:31;15.30;99.90
24522;DHT22;12680;57.804;12.190;2023-07-08T04:39:58;16.20;99.90
24522;DHT22;12680;57.804;12.190;2023-07-08T04:42:26;15.40;99.90
24522;DHT22;12680;57.804;12.190;2023-07-08T04:44:55;17.20;99.90
24522;DHT22;12680;57.804;12.190;2023-07-08T04:47:22;15.40;99.90
24522;DHT22;12680;57.804;12.190;2023-07-08T04:49:48;15.50;99.90
24522;DHT22;12680;57.804;12.190;2023-07-08T04:52:15;15.40;99.90
24522;DHT22;12680;57.804;12.190;2023-07-08T04:54:42;16.30;99.90
24522;DHT22;12680;57.804;12.190;2023-07-08T04:57:09;17.10;99.90
24522;DHT22;12680;57.804;12.190;2023-07-08T04:59:36;18.40;99.90
24522;DHT22;12680;57.804;12.190;2023-07-08T05:02:02;17.90;99.90
24522;DHT22;12680;57.804;12.190;2023-07-08T05:04:29;15.80;99.90
24522;DHT22;12680;57.804;12.190;2023-07-08T05:06:56;15.80;99.90
24522;DHT22;12680;57.804;12.190;2023-07-08T05:09:23;16.70;99.90
24522;DHT22;12680;57.804;12.190;2023-07-08T05:11:53;17.50;99.90
24522;DHT22;12680;57.804;12.190;2023-07-08T05:14:20;17.40;99.90
24522;DHT22;12680;57.804;12.190;2023-07-08T05:16:46;15.90;99.90
24522;DHT22;12680;57.804;12.190;2023-07-08T05:19:14;17.90;99.90
24522;DHT22;12680;57.804;12.190;2023-07-08T05:21:41;15.90;99.90
24522;DHT22;12680;57.804;12.190;2023-07-08T05:24:09;15.90;99.90
24522;DHT22;12680;57.804;12.190;2023-07-08T05:26:36;18.00;99.90
24522;DHT22;12680;57.804;12.190;2023-07-08T05:29:03;15.90;99.90
24522;DHT22;12680;57.804;12.190;2023-07-08T05:31:30;16.60;99.90
24522;DHT22;12680;57.804;12.190;2023-07-08T05:34:14;18.30;99.90
24522;DHT22;12680;57.804;12.190;2023-07-08T05:36:41;16.50;99.90
24522;DHT22;12680;57.804;12.190;2023-07-08T05:39:07;18.70;99.90
24522;DHT22;12680;57.804;12.190;2023-07-08T05:41:34;16.70;99.90
24522;DHT22;12680;57.804;12.190;2023-07-08T05:44:01;16.80;99.90
24522;DHT22;12680;57.804;12.190;2023-07-08T05:46:28;19.00;99.90
24522;DHT22;12680;57.804;12.190;2023-07-08T05:48:55;18.00;99.90
24522;DHT22;12680;57.804;12.190;2023-07-08T05:51:26;17.10;99.90
24522;DHT22;12680;57.804;12.190;2023-07-08T05:53:52;17.20;99.90
24522;DHT22;12680;57.804;12.190;2023-07-08T05:56:19;17.20;99.90
24522;DHT22;12680;57.804;12.190;2023-07-08T05:58:46;17.20;99.90
24522;DHT22;12680;57.804;12.190;2023-07-08T06:01:13;18.70;99.90
24522;DHT22;12680;57.804;12.190;2023-07-08T06:03:40;18.80;99.90
24522;DHT22;12680;57.804;12.190;2023-07-08T06:06:07;18.80;99.90
24522;DHT22;12680;57.804;12.190;2023-07-08T06:08:34;18.60;99.90
24522;DHT22;12680;57.804;12.190;2023-07-08T06:11:01;18.40;99.90
24522;DHT22;12680;57.804;12.190;2023-07-08T08:33:42;21.80;95.50
24522;DHT22;12680;57.804;12.190;2023-07-08T08:36:08;22.30;95.80
24522;DHT22;12680;57.804;12.190;2023-07-08T08:38:35;22.90;95.90
24522;DHT22;12680;57.804;12.190;2023-07-08T08:41:17;23.40;95.50
24522;DHT22;12680;57.804;12.190;2023-07-08T08:43:45;22.00;95.10
24522;DHT22;12680;57.804;12.190;2023-07-08T08:46:20;23.80;95.50
24522;DHT22;12680;57.804;12.190;2023-07-08T08:51:49;22.20;94.40
24522;DHT22;12680;57.804;12.190;2023-07-08T08:54:16;22.20;94.30
24522;DHT22;12680;57.804;12.190;2023-07-08T08:57:02;22.20;94.20
24522;DHT22;12680;57.804;12.190;2023-07-08T08:59:45;22.20;93.90
24522;DHT22;12680;57.804;12.190;2023-07-08T09:05:05;22.30;93.80
24522;DHT22;12680;57.804;12.190;2023-07-08T09:07:43;22.40;93.90
24522;DHT22;12680;57.804;12.190;2023-07-08T09:12:55;22.50;93.30
24522;DHT22;12680;57.804;12.190;2023-07-08T09:15:26;22.50;93.20
24522;DHT22;12680;57.804;12.190;2023-07-08T09:17:53;22.60;93.30
24522;DHT22;12680;57.804;12.190;2023-07-08T09:20:28;23.20;93.40
24522;DHT22;12680;57.804;12.190;2023-07-08T09:26:02;22.80;93.20
24522;DHT22;12680;57.804;12.190;2023-07-08T09:28:40;23.10;92.70
24522;DHT22;12680;57.804;12.190;2023-07-08T09:31:16;23.00;92.60
24522;DHT22;12680;57.804;12.190;2023-07-08T09:33:47;24.50;92.70
24522;DHT22;12680;57.804;12.190;2023-07-08T09:36:21;23.20;92.20
24522;DHT22;12680;57.804;12.190;2023-07-08T09:38:50;23.70;91.80
24522;DHT22;12680;57.804;12.190;2023-07-08T09:41:35;23.50;91.70
24522;DHT22;12680;57.804;12.190;2023-07-08T09:44:23;23.60;91.10
24522;DHT22;12680;57.804;12.190;2023-07-08T09:46:54;23.70;91.00
24522;DHT22;12680;57.804;12.190;2023-07-08T09:51:50;24.10;90.10
24522;DHT22;12680;57.804;12.190;2023-07-08T09:54:18;24.50;89.90
24522;DHT22;12680;57.804;12.190;2023-07-08T09:56:58;26.20;89.50
24522;DHT22;12680;57.804;12.190;2023-07-08T09:59:36;24.10;88.60
24522;DHT22;12680;57.804;12.190;2023-07-08T10:04:47;23.80;87.30
24522;DHT22;12680;57.804;12.190;2023-07-08T10:07:18;23.70;87.10
24522;DHT22;12680;57.804;12.190;2023-07-08T10:09:48;23.60;86.30
24522;DHT22;12680;57.804;12.190;2023-07-08T10:12:17;23.40;86.60
24522;DHT22;12680;57.804;12.190;2023-07-08T10:14:49;24.90;88.50
24522;DHT22;12680;57.804;12.190;2023-07-08T10:17:19;23.50;87.30
24522;DHT22;12680;57.804;12.190;2023-07-08T10:19:47;23.10;87.80
24522;DHT22;12680;57.804;12.190;2023-07-08T10:22:47;24.20;88.90
24522;DHT22;12680;57.804;12.190;2023-07-08T10:25:34;23.10;88.70
24522;DHT22;12680;57.804;12.190;2023-07-08T10:29:08;23.10;88.10
24522;DHT22;12680;57.804;12.190;2023-07-08T10:31:32;23.30;87.90
24522;DHT22;12680;57.804;12.190;2023-07-08T10:37:00;22.90;87.00
24522;DHT22;12680;57.804;12.190;2023-07-08T10:39:44;22.70;87.00
24522;DHT22;12680;57.804;12.190;2023-07-08T10:42:32;22.70;87.30
24522;DHT22;12680;57.804;12.190;2023-07-08T10:45:55;22.70;87.50
24522;DHT22;12680;57.804;12.190;2023-07-08T10:51:23;22.80;87.90
24522;DHT22;12680;57.804;12.190;2023-07-08T10:54:23;22.90;88.60
24522;DHT22;12680;57.804;12.190;2023-07-08T10:57:02;23.00;88.70
24522;DHT22;12680;57.804;12.190;2023-07-08T11:04:55;23.20;88.20
24522;DHT22;12680;57.804;12.190;2023-07-08T11:07:41;23.20;87.30
24522;DHT22;12680;57.804;12.190;2023-07-08T11:10:19;23.30;87.30
24522;DHT22;12680;57.804;12.190;2023-07-08T11:12:53;23.30;86.80
24522;DHT22;12680;57.804;12.190;2023-07-08T11:15:25;23.80;87.40
24522;DHT22;12680;57.804;12.190;2023-07-08T11:21:18;23.30;85.80
24522;DHT22;12680;57.804;12.190;2023-07-08T11:23:56;23.30;86.10
24522;DHT22;12680;57.804;12.190;2023-07-08T11:26:40;24.50;86.40
24522;DHT22;12680;57.804;12.190;2023-07-08T11:29:25;23.30;84.00
24522;DHT22;12680;57.804;12.190;2023-07-08T11:31:54;23.50;83.80
24522;DHT22;12680;57.804;12.190;2023-07-08T11:34:22;25.30;85.30
24522;DHT22;12680;57.804;12.190;2023-07-08T11:36:51;24.80;83.90
24522;DHT22;12680;57.804;12.190;2023-07-08T11:39:47;23.40;82.70
24522;DHT22;12680;57.804;12.190;2023-07-08T11:42:34;23.40;81.70
24522;DHT22;12680;57.804;12.190;2023-07-08T11:45:08;23.50;81.50
24522;DHT22;12680;57.804;12.190;2023-07-08T11:47:45;23.40;81.50
24522;DHT22;12680;57.804;12.190;2023-07-08T11:50:23;23.90;82.00
24522;DHT22;12680;57.804;12.190;2023-07-08T11:53:02;23.50;82.00
24522;DHT22;12680;57.804;12.190;2023-07-08T11:58:13;23.80;82.50
24522;DHT22;12680;57.804;12.190;2023-07-08T12:00:43;24.10;81.50
24522;DHT22;12680;57.804;12.190;2023-07-08T12:03:22;23.90;80.40
24522;DHT22;12680;57.804;12.190;2023-07-08T12:05:49;25.70;82.00
24522;DHT22;12680;57.804;12.190;2023-07-08T12:08:18;24.30;80.70
24522;DHT22;12680;57.804;12.190;2023-07-08T12:10:51;24.90;80.40
24522;DHT22;12680;57.804;12.190;2023-07-08T12:13:22;24.10;79.90
24522;DHT22;12680;57.804;12.190;2023-07-08T12:15:49;24.80;79.10
24522;DHT22;12680;57.804;12.190;2023-07-08T12:18:22;24.40;78.90
24522;DHT22;12680;57.804;12.190;2023-07-08T12:20:58;24.10;78.60
24522;DHT22;12680;57.804;12.190;2023-07-08T12:23:29;24.10;79.10
24522;DHT22;12680;57.804;12.190;2023-07-08T12:25:57;26.10;79.70
24522;DHT22;12680;57.804;12.190;2023-07-08T12:28:24;25.50;79.70
24522;DHT22;12680;57.804;12.190;2023-07-08T12:30:51;24.30;78.40
24522;DHT22;12680;57.804;12.190;2023-07-08T12:33:26;24.30;77.90
24522;DHT22;12680;57.804;12.190;2023-07-08T12:35:55;24.30;78.10
24522;DHT22;12680;57.804;12.190;2023-07-08T12:38:30;24.40;78.30
24522;DHT22;12680;57.804;12.190;2023-07-08T12:41:05;26.50;80.00
24522;DHT22;12680;57.804;12.190;2023-07-08T12:43:34;24.50;77.10
24522;DHT22;12680;57.804;12.190;2023-07-08T12:46:02;24.50;75.60
24522;DHT22;12680;57.804;12.190;2023-07-08T12:48:34;24.60;75.60
24522;DHT22;12680;57.804;12.190;2023-07-08T12:51:02;24.60;75.60
24522;DHT22;12680;57.804;12.190;2023-07-08T12:53:30;24.50;74.90
24522;DHT22;12680;57.804;12.190;2023-07-08T12:56:00;24.60;74.70
24522;DHT22;12680;57.804;12.190;2023-07-08T12:58:33;24.60;75.00
24522;DHT22;12680;57.804;12.190;2023-07-08T13:01:02;24.60;74.20
24522;DHT22;12680;57.804;12.190;2023-07-08T13:03:40;24.50;74.80
24522;DHT22;12680;57.804;12.190;2023-07-08T13:06:10;24.60;75.30
24522;DHT22;12680;57.804;12.190;2023-07-08T13:08:39;24.60;74.40
24522;DHT22;12680;57.804;12.190;2023-07-08T13:11:06;24.90;76.00
24522;DHT22;12680;57.804;12.190;2023-07-08T13:13:37;24.70;75.70
24522;DHT22;12680;57.804;12.190;2023-07-08T13:16:04;24.90;75.60
24522;DHT22;12680;57.804;12.190;2023-07-08T13:18:37;24.80;75.90
24522;DHT22;12680;57.804;12.190;2023-07-08T13:21:06;24.90;75.50
24522;DHT22;12680;57.804;12.190;2023-07-08T13:23:35;25.10;75.50
24522;DHT22;12680;57.804;12.190;2023-07-08T13:26:15;25.00;73.90
24522;DHT22;12680;57.804;12.190;2023-07-08T13:28:43;25.60;74.20
24522;DHT22;12680;57.804;12.190;2023-07-08T13:31:21;25.70;74.60
24522;DHT22;12680;57.804;12.190;2023-07-08T13:33:54;25.50;75.30
24522;DHT22;12680;57.804;12.190;2023-07-08T13:36:31;25.10;74.30
24522;DHT22;12680;57.804;12.190;2023-07-08T13:39:07;25.30;74.20
24522;DHT22;12680;57.804;12.190;2023-07-08T13:41:35;25.10;73.90
24522;DHT22;12680;57.804;12.190;2023-07-08T13:44:07;25.10;74.50
24522;DHT22;12680;57.804;12.190;2023-07-08T13:46:40;24.90;72.20
24522;DHT22;12680;57.804;12.190;2023-07-08T13:51:38;24.90;71.80
24522;DHT22;12680;57.804;12.190;2023-07-08T13:54:19;24.80;71.60
24522;DHT22;12680;57.804;12.190;2023-07-08T13:56:48;25.90;72.50
24522;DHT22;12680;57.804;12.190;2023-07-08T13:59:19;24.90;72.20
24522;DHT22;12680;57.804;12.190;2023-07-08T14:01:48;24.70;71.90
24522;DHT22;12680;57.804;12.190;2023-07-08T14:04:21;24.80;71.50
24522;DHT22;12680;57.804;12.190;2023-07-08T14:06:48;25.40;72.60
24522;DHT22;12680;57.804;12.190;2023-07-08T14:09:20;24.90;71.90
24522;DHT22;12680;57.804;12.190;2023-07-08T14:11:48;26.00;72.20
24522;DHT22;12680;57.804;12.190;2023-07-08T14:14:15;25.70;72.80
24522;DHT22;12680;57.804;12.190;2023-07-08T14:16:44;25.30;72.10
24522;DHT22;12680;57.804;12.190;2023-07-08T14:19:21;26.10;71.20
24522;DHT22;12680;57.804;12.190;2023-07-08T14:22:02;25.10;69.00
24522;DHT22;12680;57.804;12.190;2023-07-08T14:24:29;25.00;69.10
24522;DHT22;12680;57.804;12.190;2023-07-08T14:26:56;25.10;69.90
24522;DHT22;12680;57.804;12.190;2023-07-08T14:29:22;26.20;71.00
24522;DHT22;12680;57.804;12.190;2023-07-08T14:31:49;25.20;70.10
24522;DHT22;12680;57.804;12.190;2023-07-08T14:34:26;25.20;68.70
24522;DHT22;12680;57.804;12.190;2023-07-08T14:36:53;25.10;68.20
24522;DHT22;12680;57.804;12.190;2023-07-08T14:39:21;24.90;68.00
24522;DHT22;12680;57.804;12.190;2023-07-08T14:41:49;24.80;68.60
24522;DHT22;12680;57.804;12.190;2023-07-08T14:44:24;24.90;68.90
24522;DHT22;12680;57.804;12.190;2023-07-08T14:46:52;24.90;68.90
24522;DHT22;12680;57.804;12.190;2023-07-08T14:49:22;24.90;68.90
24522;DHT22;12680;57.804;12.190;2023-07-08T14:51:50;25.00;68.90
24522;DHT22;12680;57.804;12.190;2023-07-08T14:54:18;25.10;68.50
24522;DHT22;12680;57.804;12.190;2023-07-08T14:56:46;25.10;69.00
24522;DHT22;12680;57.804;12.190;2023-07-08T14:59:21;25.20;68.40
24522;DHT22;12680;57.804;12.190;2023-07-08T15:01:48;25.10;67.80
24522;DHT22;12680;57.804;12.190;2023-07-08T15:04:17;25.00;68.20
24522;DHT22;12680;57.804;12.190;2023-07-08T15:06:45;25.00;68.00
24522;DHT22;12680;57.804;12.190;2023-07-08T15:09:13;24.90;68.70
24522;DHT22;12680;57.804;12.190;2023-07-08T15:11:41;25.00;68.40
24522;DHT22;12680;57.804;12.190;2023-07-08T15:14:26;25.00;68.40
24522;DHT22;12680;57.804;12.190;2023-07-08T15:16:53;25.10;68.90
24522;DHT22;12680;57.804;12.190;2023-07-08T15:19:21;25.00;68.40
24522;DHT22;12680;57.804;12.190;2023-07-08T15:21:49;25.00;68.70
24522;DHT22;12680;57.804;12.190;2023-07-08T15:24:16;25.10;68.60
24522;DHT22;12680;57.804;12.190;2023-07-08T15:26:45;25.00;68.60
24522;DHT22;12680;57.804;12.190;2023-07-08T15:29:21;25.00;67.30
24522;DHT22;12680;57.804;12.190;2023-07-08T15:31:49;24.90;68.20
24522;DHT22;12680;57.804;12.190;2023-07-08T15:34:19;25.10;68.00
24522;DHT22;12680;57.804;12.190;2023-07-08T15:36:46;25.10;68.20
24522;DHT22;12680;57.804;12.190;2023-07-08T15:39:14;25.20;68.30
24522;DHT22;12680;57.804;12.190;2023-07-08T15:41:42;25.20;67.00
24522;DHT22;12680;57.804;12.190;2023-07-08T15:44:10;25.20;66.40
24522;DHT22;12680;57.804;12.190;2023-07-08T15:46:41;25.20;66.50
24522;DHT22;12680;57.804;12.190;2023-07-08T15:49:22;25.30;66.70
24522;DHT22;12680;57.804;12.190;2023-07-08T15:51:50;25.30;66.80
24522;DHT22;12680;57.804;12.190;2023-07-08T15:54:18;25.50;66.70
24522;DHT22;12680;57.804;12.190;2023-07-08T15:56:48;25.70;66.10
24522;DHT22;12680;57.804;12.190;2023-07-08T15:59:21;25.80;65.70
24522;DHT22;12680;57.804;12.190;2023-07-08T16:01:50;25.70;65.20
24522;DHT22;12680;57.804;12.190;2023-07-08T16:04:28;25.70;65.70
24522;DHT22;12680;57.804;12.190;2023-07-08T16:06:56;25.70;65.60
24522;DHT22;12680;57.804;12.190;2023-07-08T16:09:23;25.60;65.40
24522;DHT22;12680;57.804;12.190;2023-07-08T16:11:50;25.70;65.20
24522;DHT22;12680;57.804;12.190;2023-07-08T16:14:18;25.50;64.70
24522;DHT22;12680;57.804;12.190;2023-07-08T16:16:45;25.40;64.70
24522;DHT22;12680;57.804;12.190;2023-07-08T16:19:13;25.20;64.70
24522;DHT22;12680;57.804;12.190;2023-07-08T16:21:41;25.10;65.70
24522;DHT22;12680;57.804;12.190;2023-07-08T16:24:08;25.10;66.60
24522;DHT22;12680;57.804;12.190;2023-07-08T16:26:35;25.10;67.30
24522;DHT22;12680;57.804;12.190;2023-07-08T16:29:02;25.10;66.80
24522;DHT22;12680;57.804;12.190;2023-07-08T16:31:29;25.10;67.40
24522;DHT22;12680;57.804;12.190;2023-07-08T16:33:58;25.00;67.30
24522;DHT22;12680;57.804;12.190;2023-07-08T16:36:27;24.90;68.30
24522;DHT22;12680;57.804;12.190;2023-07-08T16:38:55;24.90;68.30
24522;DHT22;12680;57.804;12.190;2023-07-08T16:41:26;24.90;69.60
24522;DHT22;12680;57.804;12.190;2023-07-08T16:43:54;24.90;69.90
24522;DHT22;12680;57.804;12.190;2023-07-08T16:46:23;24.90;69.60
24522;DHT22;12680;57.804;12.190;2023-07-08T16:48:50;24.70;69.90
24522;DHT22;12680;57.804;12.190;2023-07-08T16:51:24;24.50;70.10
24522;DHT22;12680;57.804;12.190;2023-07-08T16:54:00;24.20;70.10
24522;DHT22;12680;57.804;12.190;2023-07-08T16:56:28;24.10;71.30
24522;DHT22;12680;57.804;12.190;2023-07-08T16:58:55;24.30;71.60
24522;DHT22;12680;57.804;12.190;2023-07-08T17:01:23;24.50;70.80
24522;DHT22;12680;57.804;12.190;2023-07-08T17:03:52;24.60;70.20
24522;DHT22;12680;57.804;12.190;2023-07-08T17:06:20;24.60;70.10
24522;DHT22;12680;57.804;12.190;2023-07-08T17:08:47;24.60;70.10
24522;DHT22;12680;57.804;12.190;2023-07-08T17:11:15;24.70;70.30
24522;DHT22;12680;57.804;12.190;2023-07-08T17:13:42;25.00;70.20
24522;DHT22;12680;57.804;12.190;2023-07-08T17:16:15;25.20;69.70
24522;DHT22;12680;57.804;12.190;2023-07-08T17:18:44;25.50;69.40
24522;DHT22;12680;57.804;12.190;2023-07-08T17:21:14;26.10;69.10
24522;DHT22;12680;57.804;12.190;2023-07-08T17:33:32;29.80;63.80
24522;DHT22;12680;57.804;12.190;2023-07-08T17:35:59;30.30;62.40
24522;DHT22;12680;57.804;12.190;2023-07-08T17:38:47;30.70;61.10
24522;DHT22;12680;57.804;12.190;2023-07-08T17:41:18;31.00;59.80
24522;DHT22;12680;57.804;12.190;2023-07-08T17:43:46;31.20;59.40
24522;DHT22;12680;57.804;12.190;2023-07-08T17:46:22;31.70;60.20
24522;DHT22;12680;57.804;12.190;2023-07-08T17:48:50;32.00;58.20
24522;DHT22;12680;57.804;12.190;2023-07-08T17:51:20;32.20;58.00
24522;DHT22;12680;57.804;12.190;2023-07-08T17:53:47;32.50;56.80
24522;DHT22;12680;57.804;12.190;2023-07-08T17:56:30;32.60;56.50
24522;DHT22;12680;57.804;12.190;2023-07-08T17:58:58;33.00;55.70
24522;DHT22;12680;57.804;12.190;2023-07-08T18:01:25;33.30;55.20
24522;DHT22;12680;57.804;12.190;2023-07-08T18:03:53;33.60;55.30
24522;DHT22;12680;57.804;12.190;2023-07-08T18:06:21;34.00;54.50
24522;DHT22;12680;57.804;12.190;2023-07-08T18:08:48;34.30;53.60
24522;DHT22;12680;57.804;12.190;2023-07-08T18:11:18;34.60;53.50
24522;DHT22;12680;57.804;12.190;2023-07-08T18:13:46;35.00;52.20
24522;DHT22;12680;57.804;12.190;2023-07-08T18:16:16;35.10;51.40
24522;DHT22;12680;57.804;12.190;2023-07-08T18:18:43;35.30;50.90
24522;DHT22;12680;57.804;12.190;2023-07-08T18:21:22;35.30;50.60
24522;DHT22;12680;57.804;12.190;2023-07-08T18:23:51;35.10;50.10
24522;DHT22;12680;57.804;12.190;2023-07-08T18:26:29;35.30;50.30
24522;DHT22;12680;57.804;12.190;2023-07-08T18:28:58;35.50;49.90
24522;DHT22;12680;57.804;12.190;2023-07-08T18:31:30;35.50;49.30
24522;DHT22;12680;57.804;12.190;2023-07-08T18:34:00;35.30;49.00
24522;DHT22;12680;57.804;12.190;2023-07-08T18:36:28;35.10;49.00
24522;DHT22;12680;57.804;12.190;2023-07-08T18:38:56;34.90;48.90
24522;DHT22;12680;57.804;12.190;2023-07-08T18:41:26;34.50;48.90
24522;DHT22;12680;57.804;12.190;2023-07-08T18:43:54;34.20;48.60
24522;DHT22;12680;57.804;12.190;2023-07-08T18:46:22;32.80;48.70
24522;DHT22;12680;57.804;12.190;2023-07-08T18:48:49;31.30;50.40
24522;DHT22;12680;57.804;12.190;2023-07-08T18:51:36;30.10;51.80
24522;DHT22;12680;57.804;12.190;2023-07-08T18:56:31;27.90;54.80
24522;DHT22;12680;57.804;12.190;2023-07-08T18:58:58;27.50;55.90